createdAt,value
2018-07-24T06:43:35.493Z,17.25
2018-07-24T06:46:04.025Z,16.00
2018-07-24T06:48:32.559Z,15.98
2018-07-24T06:51:01.163Z,17.98
2018-07-24T06:53:29.667Z,15.23
2018-07-24T06:55:58.269Z,18.07
2018-07-24T06:58:26.897Z,15.15
2018-07-24T07:00:55.458Z,18.27
2018-07-24T07:03:23.998Z,17.52
2018-07-24T07:05:52.618Z,18.35
2018-07-24T07:08:21.280Z,16.05
2018-07-24T07:10:50.234Z,15.32
2018-07-24T07:13:19.798Z,15.98
2018-07-24T07:15:48.296Z,16.52
2018-07-24T07:18:17.826Z,15.32
2018-07-24T07:20:46.419Z,14.90
2018-07-24T07:23:15.058Z,19.75
2018-07-24T07:25:44.445Z,14.68
2018-07-24T07:28:15.312Z,13.90
2018-07-24T07:30:44.599Z,15.68
2018-07-24T07:33:14.486Z,11.00
2018-07-24T07:35:43.139Z,9.45
2018-07-24T07:38:13.532Z,8.80
2018-07-24T07:40:42.134Z,8.60
2018-07-24T07:43:10.753Z,9.28
2018-07-24T07:45:40.099Z,9.50
2018-07-24T07:48:09.778Z,10.00
2018-07-24T07:50:38.365Z,7.58
2018-07-24T07:53:06.948Z,9.53
2018-07-24T07:55:36.685Z,7.90
2018-07-24T07:58:06.411Z,8.03
2018-07-24T08:00:36.787Z,9.93
2018-07-24T08:03:07.590Z,7.75
2018-07-24T08:05:37.174Z,8.20
2018-07-24T08:08:06.770Z,10.50
2018-07-24T08:10:35.004Z,9.78
2018-07-24T08:13:04.213Z,8.75
2018-07-24T08:15:34.245Z,38.25
2018-07-24T08:18:02.898Z,9.00
2018-07-24T08:20:31.677Z,6.10
2018-07-24T08:23:00.928Z,6.35
2018-07-24T08:25:30.300Z,5.72
2018-07-24T08:28:01.062Z,5.85
2018-07-24T08:30:29.643Z,8.18
2018-07-24T08:32:58.256Z,7.47
2018-07-24T08:35:27.462Z,5.28
2018-07-24T08:37:56.348Z,4.58
2018-07-24T08:40:26.829Z,7.35
2018-07-24T08:42:55.392Z,6.00
2018-07-24T08:45:25.284Z,8.75
2018-07-24T08:47:53.933Z,5.67
2018-07-24T08:50:23.369Z,5.58
2018-07-24T08:52:53.270Z,5.50
2018-07-24T08:55:22.974Z,6.37
2018-07-24T08:57:51.208Z,5.00
2018-07-24T09:00:19.869Z,7.55
2018-07-24T09:02:49.565Z,7.50
2018-07-24T09:05:18.164Z,5.42
2018-07-24T09:07:46.754Z,4.78
2018-07-24T09:10:15.454Z,9.35
2018-07-24T09:12:44.017Z,8.00
2018-07-24T09:15:14.516Z,9.20
2018-07-24T09:17:43.202Z,8.60
2018-07-24T09:20:12.628Z,8.80
2018-07-24T09:22:41.300Z,5.40
2018-07-24T09:25:10.829Z,9.18
2018-07-24T09:27:41.351Z,7.03
2018-07-24T09:30:09.952Z,7.08
2018-07-24T09:32:40.166Z,7.70
2018-07-24T09:35:08.731Z,8.28
2018-07-24T09:37:38.411Z,7.45
2018-07-24T09:40:07.953Z,6.90
2018-07-24T09:42:36.731Z,7.05
2018-07-24T09:45:06.141Z,5.95
2018-07-24T09:47:35.596Z,4.95
2018-07-24T09:50:05.451Z,4.97
2018-07-24T09:52:34.624Z,7.10
2018-07-24T09:55:03.259Z,5.12
2018-07-24T09:57:32.922Z,5.03
2018-07-24T10:00:03.172Z,6.25
2018-07-24T10:02:31.819Z,7.58
2018-07-24T10:05:00.345Z,7.20
2018-07-24T10:07:30.138Z,6.55
2018-07-24T10:09:59.472Z,6.75
2018-07-24T10:12:30.908Z,6.22
2018-07-24T10:14:59.459Z,6.65
2018-07-24T10:17:29.994Z,7.40
2018-07-24T10:19:58.623Z,7.83
2018-07-24T10:22:27.916Z,6.75
2018-07-24T10:24:57.265Z,5.08
2018-07-24T10:27:25.871Z,5.85
2018-07-24T10:29:54.589Z,5.00
2018-07-24T10:32:23.155Z,4.70
2018-07-24T10:34:51.738Z,5.55
2018-07-24T10:37:21.006Z,5.67
2018-07-24T10:39:49.670Z,5.80
2018-07-24T10:42:18.866Z,4.70
2018-07-24T10:44:47.344Z,7.37
2018-07-24T10:47:15.926Z,5.22
2018-07-24T10:49:44.455Z,7.65
2018-07-24T10:52:13.119Z,5.70
2018-07-24T10:54:41.814Z,5.30
2018-07-24T10:57:10.497Z,5.75
2018-07-24T10:59:42.582Z,4.90
2018-07-24T11:02:11.484Z,5.53
2018-07-24T11:04:40.942Z,4.30
2018-07-24T11:07:12.738Z,4.62
2018-07-24T11:09:41.470Z,5.17
2018-07-24T11:12:13.376Z,4.67
2018-07-24T11:14:44.671Z,5.30
2018-07-24T11:17:14.849Z,5.10
2018-07-24T11:19:43.604Z,5.00
2018-07-24T11:22:13.698Z,5.55
2018-07-24T11:24:42.423Z,5.92
2018-07-24T11:30:05.103Z,4.37
2018-07-24T11:32:34.723Z,4.80
2018-07-24T11:35:05.184Z,4.75
2018-07-24T11:37:38.044Z,5.00
2018-07-24T11:40:09.464Z,5.15
2018-07-24T11:42:39.635Z,5.42
2018-07-24T11:45:09.761Z,5.25
2018-07-24T11:47:38.379Z,6.42
2018-07-24T11:50:08.824Z,5.37
2018-07-24T11:52:39.177Z,4.72
2018-07-24T11:55:11.300Z,4.95
2018-07-24T11:57:41.356Z,4.92
2018-07-24T12:00:10.807Z,6.10
2018-07-24T12:02:39.458Z,4.92
2018-07-24T12:08:01.424Z,6.95
2018-07-24T12:10:29.976Z,5.05
2018-07-24T12:12:58.569Z,5.08
2018-07-24T12:15:27.208Z,4.83
2018-07-24T12:17:57.320Z,4.40
2018-07-24T12:20:27.141Z,5.28
2018-07-24T12:22:55.752Z,4.95
2018-07-24T12:25:24.907Z,5.08
2018-07-24T12:27:54.462Z,5.10
2018-07-24T12:30:23.565Z,5.05
2018-07-24T12:32:52.107Z,4.78
2018-07-24T12:35:20.665Z,6.42
2018-07-24T12:37:49.211Z,4.53
2018-07-24T12:40:17.930Z,5.00
2018-07-24T12:42:46.492Z,4.60
2018-07-24T12:45:15.010Z,5.83
2018-07-24T12:47:43.605Z,5.22
2018-07-24T12:50:12.196Z,4.53
2018-07-24T12:52:40.835Z,5.60
2018-07-24T12:55:09.462Z,6.50
2018-07-24T12:57:38.165Z,8.70
2018-07-24T13:00:06.686Z,4.65
2018-07-24T13:02:35.202Z,4.62
2018-07-24T13:05:03.783Z,7.15
2018-07-24T13:07:32.485Z,6.62
2018-07-24T13:10:01.054Z,4.72
2018-07-24T13:12:29.657Z,4.40
2018-07-24T13:14:58.288Z,5.00
2018-07-24T13:17:26.914Z,7.42
2018-07-24T13:19:55.534Z,5.17
2018-07-24T13:22:24.134Z,4.37
2018-07-24T13:24:52.700Z,6.72
2018-07-24T13:27:21.261Z,4.53
2018-07-24T13:29:49.934Z,4.45
2018-07-24T13:32:18.588Z,4.10
2018-07-24T13:34:47.152Z,4.97
2018-07-24T13:37:16.825Z,4.65
2018-07-24T13:39:46.242Z,4.37
2018-07-24T13:42:15.472Z,5.45
2018-07-24T13:44:44.063Z,4.92
2018-07-24T13:47:12.751Z,6.42
2018-07-24T13:49:42.181Z,4.30
2018-07-24T13:52:11.827Z,4.97
2018-07-24T13:54:41.509Z,5.53
2018-07-24T13:57:10.078Z,6.78
2018-07-24T13:59:38.633Z,9.23
2018-07-24T14:02:09.851Z,13.58
2018-07-24T14:04:38.912Z,19.52
2018-07-24T14:07:07.730Z,28.90
2018-07-24T14:09:36.302Z,41.92
2018-07-24T14:12:05.045Z,64.70
2018-07-24T14:14:33.626Z,100.72
2018-07-24T14:17:02.211Z,145.72
2018-07-24T14:19:30.702Z,194.25
2018-07-24T14:21:59.282Z,227.60
2018-07-24T14:24:28.037Z,260.80
2018-07-24T14:26:57.131Z,295.82
2018-07-24T14:29:25.644Z,317.02
2018-07-24T14:31:54.212Z,333.17
2018-07-24T14:34:23.571Z,340.77
2018-07-24T14:36:53.349Z,356.40
2018-07-24T14:39:21.922Z,366.12
2018-07-24T14:41:50.504Z,359.20
2018-07-24T14:44:19.718Z,366.75
2018-07-24T14:46:49.350Z,373.05
2018-07-24T14:49:18.635Z,367.37
2018-07-24T14:51:47.959Z,365.65
2018-07-24T14:54:17.177Z,372.55
2018-07-24T14:56:46.279Z,362.40
2018-07-24T14:59:16.456Z,349.48
2018-07-24T15:01:45.020Z,319.52
2018-07-24T15:04:13.609Z,302.70
2018-07-24T15:06:42.209Z,295.52
2018-07-24T15:09:12.134Z,301.37
2018-07-24T15:11:41.178Z,304.95
2018-07-24T15:14:09.847Z,315.85
2018-07-24T15:16:38.395Z,313.43
2018-07-24T15:19:07.100Z,317.32
2018-07-24T15:21:35.765Z,317.68
2018-07-24T15:24:04.379Z,315.20
2018-07-24T15:26:32.912Z,300.05
2018-07-24T15:29:03.079Z,287.75
2018-07-24T15:31:31.716Z,284.70
2018-07-24T15:34:00.314Z,275.70
2018-07-24T15:36:28.948Z,269.37
2018-07-24T15:38:58.490Z,262.50
2018-07-24T15:41:27.191Z,249.98
2018-07-24T15:43:55.658Z,243.97
2018-07-24T15:46:24.429Z,230.98
2018-07-24T15:48:53.713Z,214.40
2018-07-24T15:51:22.304Z,210.38
2018-07-24T15:53:50.854Z,204.82
2018-07-24T15:56:20.658Z,190.70
2018-07-24T15:58:49.148Z,184.48
2018-07-24T16:01:17.874Z,172.62
2018-07-24T16:03:47.107Z,161.73
2018-07-24T16:06:16.772Z,156.50
2018-07-24T16:08:45.301Z,148.15
2018-07-24T16:11:14.577Z,144.40
2018-07-24T16:13:43.137Z,139.50
2018-07-24T16:16:11.660Z,132.27
2018-07-24T16:18:40.332Z,130.97
2018-07-24T16:21:09.541Z,125.20
2018-07-24T16:23:38.830Z,120.17
2018-07-24T16:26:07.375Z,115.75
2018-07-24T16:28:36.018Z,107.40
2018-07-24T16:31:05.601Z,102.10
2018-07-24T16:33:34.160Z,97.90
2018-07-24T16:36:02.733Z,91.90
2018-07-24T16:38:31.301Z,85.65
2018-07-24T16:40:59.861Z,81.80
2018-07-24T16:43:28.351Z,74.20
2018-07-24T16:45:56.963Z,69.32
2018-07-24T16:48:26.131Z,62.73
2018-07-24T16:50:54.713Z,59.05
2018-07-24T16:53:23.239Z,54.00
2018-07-24T16:55:51.817Z,51.15
2018-07-24T16:58:20.445Z,45.35
2018-07-24T17:00:49.023Z,33.67
2018-07-24T17:03:17.691Z,16.90
2018-07-24T17:05:47.147Z,8.30
2018-07-24T17:08:15.876Z,4.28
2018-07-24T17:10:44.395Z,4.65
2018-07-24T17:13:12.952Z,5.62
2018-07-24T17:15:41.540Z,5.67
2018-07-24T17:18:10.324Z,4.50
2018-07-24T17:20:38.896Z,4.28
2018-07-24T17:23:07.459Z,4.03
2018-07-24T17:25:36.120Z,4.03
2018-07-24T17:28:04.824Z,5.37
2018-07-24T17:30:33.413Z,4.22
2018-07-24T17:33:01.952Z,4.30
2018-07-24T17:35:30.553Z,5.22
2018-07-24T17:37:59.132Z,4.65
2018-07-24T17:40:27.688Z,4.25
2018-07-24T17:42:56.685Z,4.25
2018-07-24T17:45:25.222Z,4.37
2018-07-24T17:47:53.811Z,4.97
2018-07-24T17:50:22.412Z,5.60
2018-07-24T17:52:50.986Z,4.85
2018-07-24T17:55:19.568Z,4.62
2018-07-24T17:57:48.094Z,4.62
2018-07-24T18:00:16.875Z,3.87
2018-07-24T18:02:45.419Z,4.28
2018-07-24T18:05:14.021Z,5.37
2018-07-24T18:07:42.681Z,4.47
2018-07-24T18:10:11.239Z,4.30
2018-07-24T18:12:40.020Z,3.98
2018-07-24T18:15:08.886Z,4.37
2018-07-24T18:17:37.581Z,4.08
2018-07-24T18:20:06.188Z,6.45
2018-07-24T18:22:34.752Z,5.10
2018-07-24T18:25:03.282Z,5.85
2018-07-24T18:27:31.822Z,4.60
2018-07-24T18:30:00.452Z,6.00
2018-07-24T18:32:29.030Z,4.60
2018-07-24T18:34:59.065Z,4.67
2018-07-24T18:37:27.772Z,5.85
2018-07-24T18:39:56.372Z,4.92
2018-07-24T18:42:24.961Z,5.08
2018-07-24T18:44:53.512Z,4.65
2018-07-24T18:47:22.213Z,6.53
2018-07-24T18:49:51.772Z,6.08
2018-07-24T18:52:21.205Z,6.33
2018-07-24T18:54:54.375Z,6.03
2018-07-24T18:57:26.688Z,5.72
2018-07-24T18:59:57.372Z,5.67
2018-07-24T19:02:28.352Z,5.83
2018-07-24T19:04:57.593Z,5.67
2018-07-24T19:08:56.823Z,6.65
2018-07-24T19:11:29.647Z,6.83
2018-07-24T19:14:00.847Z,6.35
2018-07-24T19:16:30.618Z,5.40
2018-07-24T19:19:00.791Z,6.37
2018-07-24T19:21:29.375Z,6.78
2018-07-24T19:23:57.940Z,6.70
2018-07-24T19:26:26.590Z,7.03
2018-07-24T19:28:57.762Z,8.38
2018-07-24T19:31:29.410Z,6.20
2018-07-24T19:33:59.002Z,7.20
2018-07-24T19:36:29.525Z,6.60
2018-07-24T19:38:59.269Z,7.60
2018-07-24T19:41:27.958Z,9.68
2018-07-24T19:43:56.684Z,8.30
2018-07-24T19:46:26.041Z,11.48
2018-07-24T19:48:55.798Z,9.15
2018-07-24T19:51:27.243Z,9.73
2018-07-24T19:53:56.516Z,9.35
2018-07-24T19:56:27.121Z,9.48
2018-07-24T19:58:56.398Z,9.78
2018-07-24T20:01:26.160Z,10.58
2018-07-24T20:03:55.130Z,8.98
2018-07-24T20:06:24.225Z,8.58
2018-07-24T20:08:54.074Z,9.83
2018-07-24T20:11:22.688Z,9.50
2018-07-24T20:13:51.285Z,7.87
2018-07-24T20:16:20.862Z,8.63
2018-07-24T20:18:51.311Z,10.80
2018-07-24T20:21:21.487Z,8.53
2018-07-24T20:23:50.171Z,9.33
2018-07-24T20:26:20.768Z,8.78
2018-07-24T20:28:50.547Z,9.65
2018-07-24T20:31:19.640Z,10.55
2018-07-24T20:33:52.454Z,8.90
2018-07-24T20:36:22.945Z,7.83
2018-07-24T20:38:51.754Z,8.03
2018-07-24T20:41:20.266Z,8.03
2018-07-24T20:43:48.996Z,7.20
2018-07-24T20:46:18.033Z,9.75
2018-07-24T20:48:46.755Z,9.83
2018-07-24T20:51:15.477Z,8.58
2018-07-24T20:53:44.079Z,8.60
2018-07-24T20:56:12.591Z,7.40
2018-07-24T20:58:41.250Z,7.97
2018-07-24T21:01:09.960Z,8.25
2018-07-24T21:03:38.503Z,9.55
2018-07-24T21:06:07.148Z,7.50
2018-07-24T21:08:35.895Z,8.03
2018-07-24T21:11:04.819Z,7.55
2018-07-24T21:13:33.408Z,9.83
2018-07-24T21:16:03.768Z,12.35
2018-07-24T21:18:33.044Z,12.50
2018-07-24T21:21:02.222Z,14.25
2018-07-24T21:23:31.435Z,8.90
2018-07-24T21:26:02.314Z,7.85
2018-07-24T21:28:31.541Z,9.43
2018-07-24T21:31:01.002Z,9.48
2018-07-24T21:33:29.655Z,9.20
2018-07-24T21:35:58.230Z,9.05
2018-07-24T21:38:28.369Z,10.98
2018-07-24T21:40:57.517Z,8.15
2018-07-24T21:43:28.425Z,9.98
2018-07-24T21:45:57.625Z,8.75
2018-07-24T21:48:26.438Z,9.33
2018-07-24T21:50:56.041Z,10.03
2018-07-24T21:53:25.956Z,9.33
2018-07-24T21:55:56.574Z,8.78
2018-07-24T21:58:25.278Z,8.05
2018-07-24T22:00:59.070Z,9.05
2018-07-24T22:03:29.539Z,7.90
2018-07-24T22:05:59.584Z,8.03
2018-07-24T22:08:29.150Z,7.85
2018-07-24T22:11:00.151Z,8.90
2018-07-24T22:13:28.730Z,8.05
2018-07-24T22:15:59.869Z,9.90
2018-07-24T22:18:29.080Z,9.20
2018-07-24T22:20:58.572Z,9.35
2018-07-24T22:23:26.911Z,9.43
2018-07-24T22:25:57.450Z,7.55
2018-07-24T22:28:27.611Z,11.83
2018-07-24T22:30:57.472Z,7.65
2018-07-24T22:33:27.228Z,8.10
2018-07-24T22:35:56.060Z,7.55
2018-07-24T22:38:31.772Z,9.55
2018-07-24T22:41:08.762Z,8.95
2018-07-24T22:43:38.093Z,7.75
2018-07-24T22:46:09.456Z,10.72
2018-07-24T22:48:39.406Z,7.65
2018-07-24T22:51:09.513Z,7.08
2018-07-24T22:53:38.275Z,8.58
2018-07-24T22:56:10.329Z,7.35
2018-07-24T22:58:46.418Z,7.87
2018-07-24T23:01:17.667Z,7.90
2018-07-24T23:03:48.864Z,6.58
2018-07-24T23:06:18.089Z,6.45
2018-07-24T23:08:50.889Z,6.90
2018-07-24T23:11:19.432Z,6.00
2018-07-24T23:13:49.463Z,8.55
2018-07-24T23:16:20.096Z,7.08
2018-07-24T23:18:49.479Z,7.47
2018-07-24T23:21:18.753Z,7.33
